Time;durP1;ratioP1;P1;durP2;ratioP2;P2;SDS_P1;SDS_P2;PMS_P1;PMS_P2;Temp;Humidity;BMP_temperature;BMP_pressure;BME280_temperature;BME280_humidity;BME280_pressure;Samples;Min_cycle;Max_cycle;Signal;HPM_P1;HPM_P2
2021/11/22 00:01:20;;;;;;;9.73;4.85;;;;;;;-144.57;100.00;62443.72;5032424;28;20128;-69
2021/11/22 00:03:46;;;;;;;5.60;3.30;;;;;;;-144.57;100.00;62443.72;5034039;28;20042;-68
2021/11/22 00:06:12;;;;;;;4.85;3.30;;;;;;;-144.57;100.00;62443.72;5032270;28;20048;-68
2021/11/22 00:08:38;;;;;;;6.80;2.83;;;;;;;-144.57;100.00;62443.72;5033474;28;20076;-69
2021/11/22 00:11:04;;;;;;;5.18;3.53;;;;;;;-144.57;100.00;62443.72;5033492;28;20046;-68
2021/11/22 00:13:30;;;;;;;9.13;4.80;;;;;;;-144.57;100.00;62443.72;5033861;28;20407;-68
2021/11/22 00:15:56;;;;;;;14.13;6.03;;;;;;;-144.57;100.00;62443.72;5033398;28;20037;-68
2021/11/22 00:18:22;;;;;;;12.15;6.13;;;;;;;-144.57;100.00;62443.72;5032437;28;20568;-69
2021/11/22 00:20:48;;;;;;;13.73;7.00;;;;;;;-144.57;100.00;62443.72;5031961;28;20507;-68
2021/11/22 00:23:14;;;;;;;14.75;6.82;;;;;;;-144.57;100.00;62443.72;5033527;28;20053;-67
2021/11/22 00:25:40;;;;;;;11.95;6.13;;;;;;;-144.57;100.00;62443.72;5033435;28;20037;-68
2021/11/22 00:28:06;;;;;;;14.32;6.88;;;;;;;-144.57;100.00;62443.72;5033179;28;20465;-68
2021/11/22 00:30:57;;;;;;;9.73;5.13;;;;;;;-144.57;100.00;62443.72;5032872;28;20077;-68
2021/11/22 00:33:33;;;;;;;13.95;7.07;;;;;;;-144.57;100.00;62443.72;5015497;28;20072;-68
2021/11/22 00:36:15;;;;;;;18.23;8.05;;;;;;;-144.57;100.00;62443.72;5015255;28;20095;-69
2021/11/22 00:38:40;;;;;;;9.07;4.55;;;;;;;-144.57;100.00;62443.72;5031830;28;20041;-68
2021/11/22 00:41:07;;;;;;;6.15;3.83;;;;;;;-144.57;100.00;62443.72;5015472;28;20083;-68
2021/11/22 00:43:33;;;;;;;9.60;4.65;;;;;;;-144.57;100.00;62443.72;5033357;28;20049;-66
2021/11/22 00:45:58;;;;;;;6.10;3.53;;;;;;;-144.57;100.00;62443.72;5032851;28;20096;-67
2021/11/22 00:48:24;;;;;;;5.07;3.13;;;;;;;-144.57;100.00;62443.72;5032071;28;20044;-67
2021/11/22 00:50:52;;;;;;;4.75;3.05;;;;;;;-144.57;100.00;62443.72;5032919;28;20561;-68
2021/11/22 00:53:18;;;;;;;3.50;2.47;;;;;;;-144.57;100.00;62443.72;5031643;28;20072;-68
2021/11/22 00:55:43;;;;;;;8.15;3.25;;;;;;;-144.57;100.00;62443.72;5047909;28;20054;-68
2021/11/22 00:58:09;;;;;;;6.03;2.92;;;;;;;-144.57;100.00;62443.72;5014864;28;20042;-67
2021/11/22 01:00:36;;;;;;;4.38;3.30;;;;;;;-144.57;100.00;62443.72;5032912;28;20045;-67
2021/11/22 01:03:03;;;;;;;5.22;2.92;;;;;;;-144.57;100.00;62443.72;5031298;28;20620;-68
2021/11/22 01:05:29;;;;;;;4.30;2.65;;;;;;;-144.57;100.00;62443.72;5032462;28;20509;-69
2021/11/22 01:07:54;;;;;;;5.97;2.58;;;;;;;-144.57;100.00;62443.72;5032741;28;20072;-69
2021/11/22 01:10:22;;;;;;;4.95;2.60;;;;;;;-144.57;100.00;62443.72;5032552;28;20494;-67
2021/11/22 01:12:50;;;;;;;5.35;2.15;;;;;;;-144.57;100.00;62443.72;5047753;28;20517;-67
2021/11/22 01:15:18;;;;;;;3.45;2.30;;;;;;;-144.57;100.00;62443.72;5032213;28;20033;-68
2021/11/22 01:17:45;;;;;;;3.60;2.47;;;;;;;-144.57;100.00;62443.72;5047476;28;20130;-68
2021/11/22 01:20:14;;;;;;;11.10;5.78;;;;;;;-144.57;100.00;62443.72;5032082;28;20033;-67
2021/11/22 01:22:40;;;;;;;7.13;3.15;;;;;;;-144.57;100.00;62443.72;5032196;28;20064;-67
2021/11/22 01:25:07;;;;;;;3.72;2.33;;;;;;;-144.57;100.00;62443.72;5032300;28;20426;-67
2021/11/22 01:27:33;;;;;;;3.88;2.67;;;;;;;-144.57;100.00;62443.72;5031994;28;20069;-68
2021/11/22 01:29:59;;;;;;;3.70;2.58;;;;;;;-144.57;100.00;62443.72;5032171;28;20083;-68
2021/11/22 01:32:24;;;;;;;3.33;2.17;;;;;;;-144.57;100.00;62443.72;5032149;28;20099;-68
2021/11/22 01:34:50;;;;;;;3.58;2.30;;;;;;;-144.57;100.00;62443.72;5047579;28;20037;-68
2021/11/22 01:37:17;;;;;;;3.15;2.08;;;;;;;-144.57;100.00;62443.72;5030898;28;20041;-67
2021/11/22 01:39:43;;;;;;;3.38;2.00;;;;;;;-144.57;100.00;62443.72;5032048;28;20479;-68
2021/11/22 01:42:09;;;;;;;2.90;2.20;;;;;;;-144.57;100.00;62443.72;5031725;28;20129;-68
2021/11/22 01:44:35;;;;;;;4.22;2.58;;;;;;;-144.57;100.00;62443.72;5030551;28;20560;-68
2021/11/22 01:47:01;;;;;;;2.58;1.75;;;;;;;-144.57;100.00;62443.72;5030832;28;20041;-68
2021/11/22 01:49:27;;;;;;;3.40;2.40;;;;;;;-144.57;100.00;62443.72;5047253;28;20095;-68
2021/11/22 01:51:52;;;;;;;5.57;2.13;;;;;;;-144.57;100.00;62443.72;5032190;28;20041;-69
2021/11/22 01:54:18;;;;;;;2.70;2.03;;;;;;;-144.57;100.00;62443.72;5030482;28;20045;-68
2021/11/22 01:56:45;;;;;;;3.00;1.88;;;;;;;-144.57;100.00;62443.72;5030477;28;20494;-70
2021/11/22 01:59:16;;;;;;;2.47;1.90;;;;;;;-144.57;100.00;62443.72;5031671;28;20559;-68
2021/11/22 02:01:43;;;;;;;1.88;1.75;;;;;;;-144.57;100.00;62443.72;5030198;28;20072;-67
2021/11/22 02:04:09;;;;;;;2.72;1.95;;;;;;;-144.57;100.00;62443.72;5031959;28;20128;-68
2021/11/22 02:06:34;;;;;;;2.63;1.95;;;;;;;-144.57;100.00;62443.72;5031794;28;20227;-68
2021/11/22 02:09:00;;;;;;;2.17;1.90;;;;;;;-144.57;100.00;62443.72;5031878;28;20056;-68
2021/11/22 02:11:26;;;;;;;2.72;1.88;;;;;;;-144.57;100.00;62443.72;5046648;28;20045;-67
2021/11/22 02:13:52;;;;;;;5.25;2.05;;;;;;;-144.57;100.00;62443.72;5031400;28;20085;-68
2021/11/22 02:16:17;;;;;;;3.30;2.30;;;;;;;-144.57;100.00;62443.72;5031327;28;20041;-67
2021/11/22 02:18:44;;;;;;;3.38;2.10;;;;;;;-144.57;100.00;62443.72;5030329;28;20459;-67
2021/11/22 02:21:11;;;;;;;3.85;2.00;;;;;;;-144.57;100.00;62443.72;5031450;28;20045;-67
2021/11/22 02:23:37;;;;;;;2.47;2.03;;;;;;;-144.57;100.00;62443.72;5031684;28;20124;-67
2021/11/22 02:26:03;;;;;;;2.47;1.90;;;;;;;-144.57;100.00;62443.72;5031275;28;20633;-68
2021/11/22 02:28:30;;;;;;;3.08;2.20;;;;;;;-144.57;100.00;62443.72;5030149;28;20137;-66
2021/11/22 02:30:56;;;;;;;3.20;2.13;;;;;;;-144.57;100.00;62443.72;5030207;28;20128;-67
2021/11/22 02:33:24;;;;;;;3.78;2.60;;;;;;;-144.57;100.00;62443.72;5046858;28;20041;-68
2021/11/22 02:35:52;;;;;;;3.60;2.15;;;;;;;-144.57;100.00;62443.72;5031172;28;20041;-67
2021/11/22 02:38:20;;;;;;;4.82;2.20;;;;;;;-144.57;100.00;62443.72;5031426;28;20049;-67
2021/11/22 02:40:46;;;;;;;3.13;1.88;;;;;;;-144.57;100.00;62443.72;5031167;28;20045;-68
2021/11/22 02:43:12;;;;;;;3.35;2.03;;;;;;;-144.57;100.00;62443.72;5030128;28;20095;-67
2021/11/22 02:45:38;;;;;;;4.72;2.15;;;;;;;-144.57;100.00;62443.72;5031123;28;20414;-68
2021/11/22 02:48:04;;;;;;;3.15;1.85;;;;;;;-144.57;100.00;62443.72;5029829;28;20144;-66
2021/11/22 02:50:30;;;;;;;5.78;2.05;;;;;;;-144.57;100.00;62443.72;5030075;28;20128;-65
2021/11/22 02:52:56;;;;;;;3.63;1.77;;;;;;;-144.57;100.00;62443.72;5029817;28;20614;-67
2021/11/22 02:55:22;;;;;;;5.60;2.85;;;;;;;-144.57;100.00;62443.72;5031123;28;20044;-67
2021/11/22 02:57:49;;;;;;;3.13;2.03;;;;;;;-144.57;100.00;62443.72;5031131;28;20049;-67
2021/11/22 03:00:23;;;;;;;3.95;2.08;;;;;;;-144.57;100.00;62443.72;5030967;28;20048;-67
2021/11/22 03:02:50;;;;;;;2.97;2.10;;;;;;;-144.57;100.00;62443.72;5046288;28;20115;-67
2021/11/22 03:05:16;;;;;;;3.97;2.15;;;;;;;-144.57;100.00;62443.72;5029672;28;20497;-67
2021/11/22 03:07:43;;;;;;;3.83;2.10;;;;;;;-144.57;100.00;62443.72;5030938;28;20067;-68
2021/11/22 03:10:10;;;;;;;4.47;2.05;;;;;;;-144.57;100.00;62443.72;5030945;28;20111;-67
2021/11/22 03:12:36;;;;;;;3.25;1.70;;;;;;;-144.57;100.00;62443.72;5031893;28;20072;-67
2021/11/22 03:15:10;;;;;;;3.65;1.95;;;;;;;-144.57;100.00;62443.72;5032997;28;20507;-67
2021/11/22 03:17:36;;;;;;;2.20;1.88;;;;;;;-144.57;100.00;62443.72;5032795;28;20179;-69
2021/11/22 03:20:04;;;;;;;3.80;2.03;;;;;;;-144.57;100.00;62443.72;5033326;28;20167;-67
2021/11/22 03:22:30;;;;;;;2.33;1.70;;;;;;;-144.57;100.00;62443.72;5033099;28;20116;-68
2021/11/22 03:24:56;;;;;;;2.90;2.10;;;;;;;-144.57;100.00;62443.72;5034479;28;20118;-68
2021/11/22 03:27:21;;;;;;;4.60;2.40;;;;;;;-144.57;100.00;62443.72;5033766;28;20045;-67
2021/11/22 03:29:47;;;;;;;4.32;2.35;;;;;;;-144.57;100.00;62443.72;5032983;28;20037;-69
2021/11/22 03:32:13;;;;;;;4.68;2.88;;;;;;;-144.57;100.00;62443.72;5033114;28;20502;-68
2021/11/22 03:34:39;;;;;;;3.22;2.20;;;;;;;-144.57;100.00;62443.72;5031869;28;20095;-68
2021/11/22 03:37:05;;;;;;;3.97;2.28;;;;;;;-144.57;100.00;62443.72;5033593;28;20498;-69
2021/11/22 03:39:32;;;;;;;3.97;2.58;;;;;;;-144.57;100.00;62443.72;5034059;28;20537;-69
2021/11/22 03:42:01;;;;;;;3.72;2.30;;;;;;;-144.57;100.00;62443.72;5049530;28;20414;-68
2021/11/22 03:44:27;;;;;;;3.75;2.47;;;;;;;-144.57;100.00;62443.72;5032750;28;20140;-68
2021/11/22 03:46:55;;;;;;;4.50;3.13;;;;;;;-144.57;100.00;62443.72;5034197;28;20282;-68
2021/11/22 03:49:22;;;;;;;4.90;3.10;;;;;;;-144.57;100.00;62443.72;5016169;28;20108;-70
2021/11/22 03:51:48;;;;;;;6.43;3.70;;;;;;;-144.57;100.00;62443.72;5049077;28;20064;-68
2021/11/22 03:54:14;;;;;;;5.75;3.28;;;;;;;-144.57;100.00;62443.72;5032805;28;20093;-68
2021/11/22 03:56:40;;;;;;;3.30;2.30;;;;;;;-144.57;100.00;62443.72;5032781;28;20391;-68
2021/11/22 03:59:07;;;;;;;4.15;2.65;;;;;;;-144.57;100.00;62443.72;5032639;28;20501;-68
2021/11/22 04:01:33;;;;;;;2.88;2.10;;;;;;;-144.57;100.00;62443.72;5033820;28;20513;-68
2021/11/22 04:04:00;;;;;;;3.20;2.38;;;;;;;-144.57;100.00;62443.72;5034135;28;20072;-66
2021/11/22 04:06:25;;;;;;;3.92;2.40;;;;;;;-144.57;100.00;62443.72;5033464;28;20077;-69
2021/11/22 04:08:51;;;;;;;3.47;2.20;;;;;;;-144.57;100.00;62443.72;5033676;28;20103;-67
2021/11/22 04:11:17;;;;;;;4.43;2.17;;;;;;;-144.57;100.00;62443.72;5032056;28;20037;-67
2021/11/22 04:13:43;;;;;;;4.28;2.80;;;;;;;-144.57;100.00;62443.72;5033774;28;20128;-67
2021/11/22 04:16:11;;;;;;;4.15;2.60;;;;;;;-144.57;100.00;62443.72;5048642;28;20060;-67
2021/11/22 04:18:37;;;;;;;3.22;2.40;;;;;;;-144.57;100.00;62443.72;5032319;28;20072;-67
2021/11/22 04:21:03;;;;;;;3.47;1.77;;;;;;;-144.57;100.00;62443.72;5033438;28;20115;-67
2021/11/22 04:23:30;;;;;;;2.58;1.80;;;;;;;-144.57;100.00;62443.72;5033247;28;20052;-68
2021/11/22 04:25:56;;;;;;;3.95;2.00;;;;;;;-144.57;100.00;62443.72;5048352;28;20045;-67
2021/11/22 04:28:22;;;;;;;2.38;2.00;;;;;;;-144.57;100.00;62443.72;5033210;28;20049;-68
2021/11/22 04:30:48;;;;;;;2.72;1.80;;;;;;;-144.57;100.00;62443.72;5033036;28;20140;-68
2021/11/22 04:33:14;;;;;;;2.15;1.60;;;;;;;-144.57;100.00;62443.72;5033392;28;20049;-67
2021/11/22 04:35:40;;;;;;;2.70;1.90;;;;;;;-144.57;100.00;62443.72;5048348;28;20068;-65
2021/11/22 04:38:05;;;;;;;2.45;1.73;;;;;;;-144.57;100.00;62443.72;5031865;28;20111;-67
2021/11/22 04:40:32;;;;;;;2.10;1.90;;;;;;;-144.57;100.00;62443.72;5032929;28;20052;-66
2021/11/22 04:42:58;;;;;;;1.98;1.63;;;;;;;-144.57;100.00;62443.72;5015364;28;20049;-66
2021/11/22 04:45:29;;;;;;;2.25;1.88;;;;;;;-144.57;100.00;62443.72;5031523;28;20556;-65
2021/11/22 04:47:57;;;;;;;2.65;1.75;;;;;;;-144.57;100.00;62443.72;5048329;28;20049;-63
2021/11/22 04:50:23;;;;;;;2.33;1.67;;;;;;;-144.57;100.00;62443.72;5015012;28;20048;-68
2021/11/22 04:52:50;;;;;;;2.30;1.83;;;;;;;-144.57;100.00;62443.72;5032779;28;20042;-66
2021/11/22 04:55:18;;;;;;;3.50;2.13;;;;;;;-144.57;100.00;62443.72;5032839;28;20065;-65
2021/11/22 04:57:45;;;;;;;1.90;1.70;;;;;;;-144.57;100.00;62443.72;5048162;28;20060;-64
2021/11/22 05:00:14;;;;;;;2.95;1.70;;;;;;;-144.57;100.00;62443.72;5014879;28;20472;-64
2021/11/22 05:02:40;;;;;;;3.35;1.60;;;;;;;-144.57;100.00;62443.72;5015123;28;20383;-65
2021/11/22 05:05:09;;;;;;;3.13;1.85;;;;;;;-144.57;100.00;62443.72;5032407;28;20423;-65
2021/11/22 05:07:36;;;;;;;3.88;1.92;;;;;;;-144.57;100.00;62443.72;5032538;28;20121;-64
2021/11/22 05:10:03;;;;;;;3.05;1.98;;;;;;;-144.57;100.00;62443.72;5032342;28;20046;-66
2021/11/22 05:12:29;;;;;;;2.30;1.63;;;;;;;-144.57;100.00;62443.72;5030978;28;20048;-67
2021/11/22 05:14:55;;;;;;;2.67;1.77;;;;;;;-144.57;100.00;62443.72;5032441;28;20383;-65
2021/11/22 05:17:21;;;;;;;2.80;1.88;;;;;;;-144.57;100.00;62443.72;5032050;28;20073;-66
2021/11/22 05:19:46;;;;;;;2.50;1.80;;;;;;;-144.57;100.00;62443.72;5032025;28;20056;-69
2021/11/22 05:22:18;;;;;;;2.00;1.77;;;;;;;-144.57;100.00;62443.72;5032144;28;20051;-69
2021/11/22 05:24:49;;;;;;;1.70;1.50;;;;;;;-144.57;100.00;62443.72;5031173;28;20095;-69
2021/11/22 05:27:27;;;;;;;1.55;1.25;;;;;;;-144.57;100.00;62443.72;5030849;28;20062;-68
2021/11/22 05:29:53;;;;;;;1.75;1.50;;;;;;;-144.57;100.00;62443.72;5030834;28;20048;-70
2021/11/22 05:32:19;;;;;;;2.38;1.60;;;;;;;-144.57;100.00;62443.72;5047526;28;20044;-70
2021/11/22 05:34:50;;;;;;;2.65;1.80;;;;;;;-144.57;100.00;62443.72;5031117;28;20069;-69
2021/11/22 05:37:16;;;;;;;;;;;;;;;-144.57;100.00;62443.72;5032416;28;20472;-68
2021/11/22 05:39:42;;;;;;;2.63;2.13;;;;;;;-144.57;100.00;62443.72;5030435;28;20031;-69
2021/11/22 05:42:08;;;;;;;6.78;3.20;;;;;;;-144.57;100.00;62443.72;5030684;28;20184;-68
2021/11/22 05:44:35;;;;;;;2.40;1.90;;;;;;;-144.57;100.00;62443.72;5031886;28;20053;-68
2021/11/22 05:47:03;;;;;;;2.38;1.38;;;;;;;-144.57;100.00;62443.72;5030923;28;20084;-70
2021/11/22 05:49:31;;;;;;;2.60;1.60;;;;;;;-144.57;100.00;62443.72;5030682;28;20037;-68
2021/11/22 05:51:57;;;;;;;1.92;1.75;;;;;;;-144.57;100.00;62443.72;5046050;28;20498;-68
2021/11/22 05:54:24;;;;;;;4.63;3.33;;;;;;;-144.57;100.00;62443.72;5048089;28;20063;-68
2021/11/22 05:56:52;;;;;;;1.77;1.33;;;;;;;-144.57;100.00;62443.72;5047961;28;20041;-69
2021/11/22 05:59:18;;;;;;;1.70;1.60;;;;;;;-144.57;100.00;62443.72;5045272;28;20518;-69
2021/11/22 06:01:44;;;;;;;3.63;2.67;;;;;;;-144.57;100.00;62443.72;5048125;28;20055;-68
2021/11/22 06:04:09;;;;;;;5.22;3.10;;;;;;;-144.57;100.00;62443.72;5047087;28;20090;-71
2021/11/22 06:06:36;;;;;;;1.60;1.50;;;;;;;-144.57;100.00;62443.72;5047045;28;20124;-67
2021/11/22 06:09:02;;;;;;;1.92;1.52;;;;;;;-144.57;100.00;62443.72;5046431;28;20428;-69
2021/11/22 06:11:27;;;;;;;1.65;1.52;;;;;;;-144.57;100.00;62443.72;5046119;28;20037;-69
2021/11/22 06:13:53;;;;;;;3.42;2.20;;;;;;;-144.57;100.00;62443.72;5046139;28;20564;-68
2021/11/22 06:16:19;;;;;;;2.92;2.22;;;;;;;-144.57;100.00;62443.72;5046204;28;20533;-68
2021/11/22 06:18:45;;;;;;;3.20;1.80;;;;;;;-144.57;100.00;62443.72;5045074;28;20144;-67
2021/11/22 06:21:11;;;;;;;2.10;1.30;;;;;;;-144.57;100.00;62443.72;5046204;28;20044;-69
2021/11/22 06:23:37;;;;;;;1.27;1.20;;;;;;;-144.57;100.00;62443.72;5049199;28;20059;-69
2021/11/22 06:26:03;;;;;;;2.13;1.70;;;;;;;-144.57;100.00;62443.72;5047396;28;20245;-68
2021/11/22 06:28:29;;;;;;;2.00;1.45;;;;;;;-144.57;100.00;62443.72;5047273;28;20076;-63
2021/11/22 06:30:55;;;;;;;1.08;0.95;;;;;;;-144.57;100.00;62443.72;5064612;28;20417;-67
2021/11/22 06:33:21;;;;;;;1.42;1.33;;;;;;;-144.57;100.00;62443.72;5047726;28;20045;-64
2021/11/22 06:35:46;;;;;;;2.47;1.20;;;;;;;-144.57;100.00;62443.72;5046614;28;20043;-65
2021/11/22 06:38:12;;;;;;;1.98;1.10;;;;;;;-144.57;100.00;62443.72;5049843;28;20102;-64
2021/11/22 06:40:38;;;;;;;1.77;1.13;;;;;;;-144.57;100.00;62443.72;5048779;28;20076;-64
2021/11/22 06:43:04;;;;;;;2.00;1.42;;;;;;;-144.57;100.00;62443.72;5049469;28;20049;-63
2021/11/22 06:45:30;;;;;;;2.17;1.30;;;;;;;-144.57;100.00;62443.72;5047148;28;20044;-64
2021/11/22 06:47:56;;;;;;;2.42;1.42;;;;;;;-144.57;100.00;62443.72;5053202;28;20052;-63
2021/11/22 06:50:23;;;;;;;1.23;1.08;;;;;;;-144.57;100.00;62443.72;5050509;28;20043;-64
2021/11/22 06:52:50;;;;;;;1.02;1.00;;;;;;;-144.57;100.00;62443.72;5033827;28;20506;-64
2021/11/22 06:55:16;;;;;;;0.90;0.80;;;;;;;-144.57;100.00;62443.72;5051309;28;20049;-65
2021/11/22 06:57:42;;;;;;;3.50;1.30;;;;;;;-144.57;100.00;62443.72;5050908;28;20412;-65
2021/11/22 07:00:10;;;;;;;1.67;1.33;;;;;;;-144.57;100.00;62443.72;5052190;28;20075;-65
2021/11/22 07:02:37;;;;;;;3.38;1.70;;;;;;;-144.57;100.00;62443.72;5050670;28;20098;-65
2021/11/22 07:05:04;;;;;;;2.10;1.50;;;;;;;-144.57;100.00;62443.72;5050448;28;20462;-65
2021/11/22 07:07:30;;;;;;;2.00;1.50;;;;;;;-144.57;100.00;62443.72;5052672;28;20116;-64
2021/11/22 07:09:56;;;;;;;2.80;1.42;;;;;;;-144.57;100.00;62443.72;5052795;28;20049;-64
2021/11/22 07:12:22;;;;;;;3.15;1.60;;;;;;;-144.57;100.00;62443.72;5052341;28;20072;-65
2021/11/22 07:14:49;;;;;;;3.30;1.70;;;;;;;-144.57;100.00;62443.72;5050720;28;20478;-64
2021/11/22 07:17:15;;;;;;;3.03;1.83;;;;;;;-144.57;100.00;62443.72;5052231;28;20041;-65
2021/11/22 07:19:42;;;;;;;4.20;2.47;;;;;;;-144.57;100.00;62443.72;5032076;28;20110;-65
2021/11/22 07:22:09;;;;;;;2.75;1.65;;;;;;;-144.57;100.00;62443.72;5034336;28;20036;-65
2021/11/22 07:24:38;;;;;;;2.92;1.70;;;;;;;-144.57;100.00;62443.72;5051866;28;20520;-64
2021/11/22 07:27:05;;;;;;;2.45;1.70;;;;;;;-144.57;100.00;62443.72;5051031;28;20120;-64
2021/11/22 07:29:31;;;;;;;2.50;1.50;;;;;;;-144.57;100.00;62443.72;5050075;28;20047;-64
2021/11/22 07:31:57;;;;;;;4.70;2.10;;;;;;;-144.57;100.00;62443.72;5051258;28;20127;-65
2021/11/22 07:34:22;;;;;;;3.63;1.42;;;;;;;-144.57;100.00;62443.72;5050734;28;20057;-66
2021/11/22 07:36:48;;;;;;;2.40;1.50;;;;;;;-144.57;100.00;62443.72;5049362;28;20124;-64
2021/11/22 07:39:14;;;;;;;4.07;1.80;;;;;;;-144.57;100.00;62443.72;5050854;28;20088;-64
2021/11/22 07:41:40;;;;;;;1.98;1.48;;;;;;;-144.57;100.00;62443.72;5050919;28;20056;-65
2021/11/22 07:44:07;;;;;;;3.40;1.60;;;;;;;-144.57;100.00;62443.72;5049597;28;20111;-65
2021/11/22 07:46:33;;;;;;;3.45;1.95;;;;;;;-144.57;100.00;62443.72;5049511;28;20056;-64
2021/11/22 07:48:59;;;;;;;2.38;1.90;;;;;;;-144.57;100.00;62443.72;5048862;28;20049;-64
2021/11/22 07:51:25;;;;;;;1.52;1.42;;;;;;;-144.57;100.00;62443.72;5049280;28;20458;-63
2021/11/22 07:53:51;;;;;;;3.63;1.83;;;;;;;-144.57;100.00;62443.72;5050052;28;20726;-65
2021/11/22 07:56:17;;;;;;;4.32;2.03;;;;;;;-144.57;100.00;62443.72;5047633;28;20069;-64
2021/11/22 07:58:43;;;;;;;4.43;2.17;;;;;;;-144.57;100.00;62443.72;5048469;28;20095;-66
2021/11/22 08:01:09;;;;;;;6.22;3.13;;;;;;;-144.57;100.00;62443.72;5049247;28;20512;-64
2021/11/22 08:03:35;;;;;;;3.95;2.53;;;;;;;-144.57;100.00;62443.72;5047250;28;20041;-66
2021/11/22 08:06:01;;;;;;;2.58;1.92;;;;;;;-144.57;100.00;62443.72;5048604;28;20041;-65
2021/11/22 08:08:30;;;;;;;2.45;1.60;;;;;;;-144.57;100.00;62443.72;5048251;28;20083;-65
2021/11/22 08:13:41;;;;;;;2.97;1.85;;;;;;;-144.57;100.00;62443.72;5048886;28;20048;-66
2021/11/22 08:16:08;;;;;;;2.65;1.80;;;;;;;-144.57;100.00;62443.72;5031693;28;20045;-65
2021/11/22 08:18:36;;;;;;;2.22;1.70;;;;;;;-144.57;100.00;62443.72;5049360;28;20052;-68
2021/11/22 08:21:03;;;;;;;3.85;2.03;;;;;;;-144.57;100.00;62443.72;5049481;28;20102;-65
2021/11/22 08:23:30;;;;;;;4.05;2.53;;;;;;;-144.57;100.00;62443.72;5046261;28;20044;-66
2021/11/22 08:25:55;;;;;;;3.80;1.90;;;;;;;-144.57;100.00;62443.72;5046570;28;20098;-65
2021/11/22 08:28:22;;;;;;;3.33;2.20;;;;;;;-144.57;100.00;62443.72;5049170;28;20124;-64
2021/11/22 08:30:49;;;;;;;2.60;1.90;;;;;;;-144.57;100.00;62443.72;5049314;28;20044;-65
2021/11/22 08:33:17;;;;;;;2.30;1.80;;;;;;;-144.57;100.00;62443.72;5048016;28;20064;-65
2021/11/22 08:35:47;;;;;;;2.83;1.85;;;;;;;-144.57;100.00;62443.72;5047753;28;20045;-65
2021/11/22 08:38:14;;;;;;;3.57;1.47;;;;;;;-144.57;100.00;62443.72;5047021;28;20049;-66
2021/11/22 08:40:41;;;;;;;1.35;1.25;;;;;;;-144.57;100.00;62443.72;5047663;28;20080;-67
2021/11/22 08:43:13;;;;;;;3.78;1.88;;;;;;;-144.57;100.00;62443.72;5030684;28;20446;-65
2021/11/22 08:45:39;;;;;;;5.72;1.65;;;;;;;-144.57;100.00;62443.72;5047283;28;20041;-66
2021/11/22 08:48:06;;;;;;;3.45;2.42;;;;;;;-144.57;100.00;62443.72;5030703;28;20052;-65
2021/11/22 08:50:32;;;;;;;1.63;1.45;;;;;;;-144.57;100.00;62443.72;5048054;28;20052;-64
2021/11/22 08:52:58;;;;;;;2.78;1.73;;;;;;;-144.57;100.00;62443.72;5047510;28;20040;-65
2021/11/22 08:55:24;;;;;;;1.80;1.48;;;;;;;-144.57;100.00;62443.72;5045912;28;20051;-65
2021/11/22 08:57:50;;;;;;;2.40;1.48;;;;;;;-144.57;100.00;62443.72;5046520;28;20041;-66
2021/11/22 09:00:29;;;;;;;3.58;1.60;;;;;;;-144.57;100.00;62443.72;5028763;28;20131;-67
2021/11/22 09:02:55;;;;;;;1.42;1.20;;;;;;;-144.57;100.00;62443.72;5046795;28;20098;-65
2021/11/22 09:05:22;;;;;;;2.15;1.70;;;;;;;-144.57;100.00;62443.72;5047762;28;20074;-65
2021/11/22 09:07:47;;;;;;;1.98;1.40;;;;;;;-144.57;100.00;62443.72;5049252;28;20052;-64
2021/11/22 09:10:13;;;;;;;1.83;1.30;;;;;;;-144.57;100.00;62443.72;5046341;28;20044;-65
2021/11/22 09:12:39;;;;;;;1.70;1.20;;;;;;;-144.57;100.00;62443.72;5048438;28;20516;-65
2021/11/22 09:15:06;;;;;;;6.85;1.95;;;;;;;-144.57;100.00;62443.72;5047127;28;20089;-65
2021/11/22 09:17:32;;;;;;;3.72;1.58;;;;;;;-144.57;100.00;62443.72;5047410;28;20080;-64
2021/11/22 09:19:58;;;;;;;2.78;1.88;;;;;;;-144.57;100.00;62443.72;5046201;28;20510;-65
2021/11/22 09:22:23;;;;;;;2.08;1.52;;;;;;;-144.57;100.00;62443.72;5028813;28;20075;-65
2021/11/22 09:24:49;;;;;;;2.72;1.80;;;;;;;-144.57;100.00;62443.72;5045541;28;20103;-65
2021/11/22 09:27:19;;;;;;;4.13;1.60;;;;;;;-144.57;100.00;62443.72;5047622;28;20049;-64
2021/11/22 09:29:48;;;;;;;2.65;1.40;;;;;;;-144.57;100.00;62443.72;5010636;28;20521;-64
2021/11/22 09:32:13;;;;;;;1.23;1.13;;;;;;;-144.57;100.00;62443.72;5047067;28;20053;-64
2021/11/22 09:34:39;;;;;;;1.20;1.10;;;;;;;-144.57;100.00;62443.72;5047249;28;20048;-65
2021/11/22 09:37:05;;;;;;;1.95;1.60;;;;;;;-144.57;100.00;62443.72;5012792;28;20048;-65
2021/11/22 09:39:32;;;;;;;1.77;1.35;;;;;;;-144.57;100.00;62443.72;5046700;28;20037;-64
2021/11/22 09:41:57;;;;;;;1.67;1.10;;;;;;;-144.57;100.00;62443.72;5046677;28;20502;-64
2021/11/22 09:44:23;;;;;;;2.42;1.35;;;;;;;-144.57;100.00;62443.72;5046597;28;20048;-67
2021/11/22 09:46:52;;;;;;;2.80;1.92;;;;;;;-144.57;100.00;62443.72;5030808;28;20456;-64
2021/11/22 09:49:18;;;;;;;2.28;1.30;;;;;;;-144.57;100.00;62443.72;5047142;28;20033;-65
2021/11/22 09:51:44;;;;;;;3.05;1.25;;;;;;;-144.57;100.00;62443.72;5044519;28;20094;-63
2021/11/22 09:54:10;;;;;;;2.67;1.98;;;;;;;-144.57;100.00;62443.72;5041313;28;20132;-65
2021/11/22 09:56:37;;;;;;;3.67;1.50;;;;;;;-144.57;100.00;62443.72;5013845;28;20052;-65
2021/11/22 09:59:04;;;;;;;1.70;1.50;;;;;;;-144.57;100.00;62443.72;5047078;28;20052;-65
2021/11/22 10:01:32;;;;;;;2.00;1.80;;;;;;;-144.57;100.00;62443.72;5046020;28;20048;-65
2021/11/22 10:04:14;;;;;;;2.20;1.33;;;;;;;-144.57;100.00;62443.72;5047313;28;20052;-65
2021/11/22 10:06:47;;;;;;;1.40;1.30;;;;;;;-144.57;100.00;62443.72;5048305;28;20479;-64
2021/11/22 10:09:39;;;;;;;4.22;1.58;;;;;;;-144.57;100.00;62443.72;5029576;28;20120;-66
2021/11/22 10:12:17;;;;;;;1.70;1.60;;;;;;;-144.57;100.00;62443.72;5047589;28;20045;-64
2021/11/22 10:14:52;;;;;;;4.40;1.98;;;;;;;-144.57;100.00;62443.72;5045356;28;20033;-65
2021/11/22 10:17:34;;;;;;;2.15;1.48;;;;;;;-144.57;100.00;62443.72;5028369;28;20072;-64
2021/11/22 10:20:06;;;;;;;3.30;2.00;;;;;;;-144.57;100.00;62443.72;5044071;28;20037;-65
2021/11/22 10:23:00;;;;;;;1.50;1.40;;;;;;;-144.57;100.00;62443.72;5047692;28;20048;-65
2021/11/22 10:25:36;;;;;;;3.00;1.77;;;;;;;-144.57;100.00;62443.72;5048793;28;20064;-65
2021/11/22 10:28:32;;;;;;;1.83;1.20;;;;;;;-144.57;100.00;62443.72;5047573;28;20091;-65
2021/11/22 10:31:02;;;;;;;2.67;2.03;;;;;;;-144.57;100.00;62443.72;5028299;28;20041;-65
2021/11/22 10:33:31;;;;;;;1.48;1.38;;;;;;;-144.57;100.00;62443.72;5028812;28;20128;-63
2021/11/22 10:36:01;;;;;;;2.85;1.83;;;;;;;-144.57;100.00;62443.72;5026266;28;20052;-65
2021/11/22 10:38:30;;;;;;;3.17;2.13;;;;;;;-144.57;100.00;62443.72;5045591;28;20469;-65
2021/11/22 10:41:17;;;;;;;2.55;1.30;;;;;;;-144.57;100.00;62443.72;5031741;28;20564;-65
2021/11/22 10:43:52;;;;;;;1.58;1.48;;;;;;;-144.57;100.00;62443.72;5028431;28;20075;-66
2021/11/22 10:46:26;;;;;;;3.13;2.05;;;;;;;-144.57;100.00;62443.72;5045894;28;20040;-64
2021/11/22 10:48:53;;;;;;;1.35;1.25;;;;;;;-144.57;100.00;62443.72;5046041;28;20049;-64
2021/11/22 10:51:22;;;;;;;2.88;1.92;;;;;;;-144.57;100.00;62443.72;5044847;28;20502;-64
2021/11/22 10:53:54;;;;;;;3.33;1.65;;;;;;;-144.57;100.00;62443.72;5026122;28;20045;-66
2021/11/22 10:56:22;;;;;;;2.72;1.88;;;;;;;-144.57;100.00;62443.72;5027579;28;20128;-66
2021/11/22 10:59:06;;;;;;;2.80;1.80;;;;;;;-144.57;100.00;62443.72;5008568;28;20045;-63
2021/11/22 11:01:47;;;;;;;3.55;2.70;;;;;;;-144.57;100.00;62443.72;5039484;28;20049;-65
2021/11/22 11:04:31;;;;;;;6.20;2.72;;;;;;;-144.57;100.00;62443.72;5043318;28;20075;-66
2021/11/22 11:07:00;;;;;;;6.43;1.65;;;;;;;-144.57;100.00;62443.72;5044701;28;20035;-64
2021/11/22 11:09:32;;;;;;;3.47;1.42;;;;;;;-144.57;100.00;62443.72;5045558;28;20049;-66
2021/11/22 11:12:06;;;;;;;4.80;2.33;;;;;;;-144.57;100.00;62443.72;5046591;28;20049;-66
2021/11/22 11:14:34;;;;;;;5.30;2.38;;;;;;;-144.57;100.00;62443.72;5044929;28;20056;-64